Altenstadt Army Airfield


Codes: ETHA/
Name: Altenstadt Army Airfield
City: Altenstadt
Country: Germany
Elevation: 2425 ft.
Wikipedia:

Photos at Altenstadt Army Airfield


   Photos courtesy of SpottingLog. You can add your own sightings and photos by signing up for a free trial today.



No photos found.

Weather at Altenstadt Army Airfield


Time (UTC)DescriptionTempratureWindCloud coverageVisibilityPressureHumidity
15-Apr-2024 18:00Light Rain13°C20 mph, W56%10000m1007hPa78%
15-Apr-2024 21:00Light Rain10°C22 mph, W78%10000m1008hPa72%
16-Apr-2024 00:00Overcast Clouds6°C13 mph, W98%10000m1008hPa82%
16-Apr-2024 03:00Snow1°C13 mph, W100%173m1011hPa98%
16-Apr-2024 06:00Snow1°C13 mph, N100%0m1012hPa99%
16-Apr-2024 09:00Light Snow4°C20 mph, W100%10000m1011hPa89%
16-Apr-2024 12:00Light Rain6°C22 mph, W60%10000m1009hPa78%
16-Apr-2024 15:00Light Rain6°C22 mph, W8%10000m1007hPa73%
16-Apr-2024 18:00Light Rain3°C18 mph, W20%3872m1010hPa95%
16-Apr-2024 21:00Light Snow2°C16 mph, W94%7792m1011hPa93%
17-Apr-2024 00:00Light Snow2°C13 mph, W96%7098m1011hPa95%
17-Apr-2024 03:00Overcast Clouds1°C13 mph, W94%10000m1011hPa91%
17-Apr-2024 06:00Overcast Clouds1°C16 mph, W87%10000m1012hPa84%
17-Apr-2024 09:00Light Snow2°C16 mph, W92%7326m1013hPa86%
17-Apr-2024 12:00Light Snow2°C13 mph, W96%4947m1013hPa90%
17-Apr-2024 15:00Light Snow2°C11 mph, W100%3792m1014hPa94%
17-Apr-2024 18:00Light Snow1°C7 mph, W100%9658m1014hPa98%
17-Apr-2024 21:00Light Snow1°C4 mph, SW100%1155m1015hPa99%
18-Apr-2024 00:00Light Snow-0°C2 mph, SW100%10000m1015hPa98%
18-Apr-2024 03:00Overcast Clouds-1°C2 mph, SW100%10000m1015hPa98%
18-Apr-2024 06:00Light Snow0°C2 mph, N100%0m1016hPa97%
18-Apr-2024 09:00Light Snow2°C4 mph, NW100%1463m1017hPa91%
18-Apr-2024 12:00Light Snow4°C4 mph, NE100%4755m1017hPa85%
18-Apr-2024 15:00Light Snow5°C2 mph, NE97%10000m1017hPa81%
18-Apr-2024 18:00Light Snow2°C2 mph, SW94%10000m1019hPa91%
18-Apr-2024 21:00Light Snow-1°C4 mph, SW58%10000m1022hPa95%
19-Apr-2024 00:00Scattered Clouds-2°C7 mph, SW42%10000m1023hPa95%
19-Apr-2024 03:00Broken Clouds-2°C7 mph, SW60%10000m1023hPa96%
19-Apr-2024 06:00Light Snow1°C7 mph, SW70%10000m1022hPa93%
19-Apr-2024 09:00Light Rain5°C13 mph, W99%10000m1021hPa82%
19-Apr-2024 12:00Light Rain6°C16 mph, W100%10000m1019hPa71%
19-Apr-2024 15:00Light Rain4°C18 mph, W100%10000m1018hPa88%
19-Apr-2024 18:00Snow2°C20 mph, SW100%5405m1018hPa96%
19-Apr-2024 21:00Snow2°C18 mph, N100%0m1018hPa98%
20-Apr-2024 00:00Snow2°C16 mph, N100%0m1018hPa98%
20-Apr-2024 03:00Light Snow2°C13 mph, W99%10000m1020hPa97%
20-Apr-2024 06:00Light Snow1°C11 mph, W93%89m1023hPa98%
20-Apr-2024 09:00Light Snow3°C11 mph, W100%9159m1024hPa89%
20-Apr-2024 12:00Light Snow3°C11 mph, W100%8181m1024hPa88%
20-Apr-2024 15:00Light Rain4°C9 mph, W100%6785m1024hPa86%